Time;durP1;ratioP1;P1;durP2;ratioP2;P2;SDS_P1;SDS_P2;PMS_P1;PMS_P2;Temp;Humidity;BMP_temperature;BMP_pressure;BME280_temperature;BME280_humidity;BME280_pressure;Samples;Min_cycle;Max_cycle;Signal;HPM_P1;HPM_P2
2023/03/20 00:00:31;;;;;;;4.30;3.50;;;;;;;12.12;82.82;95789.06;6128995;23;20186;-87
2023/03/20 00:02:57;;;;;;;3.77;3.20;;;;;;;12.09;82.94;95790.22;6128087;23;20537;-87
2023/03/20 00:05:27;;;;;;;3.57;3.27;;;;;;;12.07;82.36;95781.88;6128907;23;20207;-88
2023/03/20 00:07:54;;;;;;;3.80;3.50;;;;;;;12.09;82.32;95785.06;6129024;23;20179;-87
2023/03/20 00:10:22;;;;;;;3.50;3.20;;;;;;;12.08;82.00;95782.66;6128587;23;20191;-87
2023/03/20 00:12:50;;;;;;;3.60;3.30;;;;;;;12.08;82.01;95788.63;6127960;23;20199;-86
2023/03/20 00:15:26;;;;;;;4.00;3.40;;;;;;;12.05;82.04;95788.97;6126695;23;20195;-87
2023/03/20 00:17:57;;;;;;;3.63;3.30;;;;;;;12.03;82.43;95785.78;6127541;23;20163;-88
2023/03/20 00:20:23;;;;;;;3.70;3.30;;;;;;;12.03;82.73;95792.72;6127376;23;20184;-87
2023/03/20 00:22:50;;;;;;;3.53;3.23;;;;;;;12.03;82.66;95780.63;6127336;23;20172;-89
2023/03/20 00:25:19;;;;;;;3.50;3.20;;;;;;;12.03;82.57;95795.31;6127297;23;20215;-87
2023/03/20 00:27:46;;;;;;;4.50;3.30;;;;;;;12.05;82.59;95783.81;6126808;23;20179;-87
2023/03/20 00:30:23;;;;;;;3.43;3.13;;;;;;;12.08;82.47;95788.63;6128096;23;20183;-86
2023/03/20 00:32:51;;;;;;;3.37;2.90;;;;;;;12.06;82.58;95788.00;6127451;23;20183;-86
2023/03/20 00:35:22;;;;;;;3.53;3.13;;;;;;;12.07;82.17;95791.38;6127596;23;20198;-87
2023/03/20 00:37:48;;;;;;;3.43;3.13;;;;;;;12.03;82.43;95787.56;6126618;23;20171;-87
2023/03/20 00:40:15;;;;;;;3.73;3.00;;;;;;;12.02;82.29;95788.53;6127586;23;20180;-87
2023/03/20 00:42:43;;;;;;;4.17;3.13;;;;;;;12.03;81.92;95790.13;6128043;23;20175;-87
2023/03/20 00:45:16;;;;;;;3.13;2.87;;;;;;;12.01;82.19;95784.34;6127369;23;20537;-88
2023/03/20 00:47:44;;;;;;;3.77;3.43;;;;;;;11.99;82.41;95789.69;6128551;23;20160;-88
2023/03/20 00:50:19;;;;;;;4.07;3.13;;;;;;;11.88;83.04;95785.00;6129657;23;20204;-89
2023/03/20 00:52:49;;;;;;;3.37;3.07;;;;;;;11.84;82.95;95788.91;6128610;23;20187;-87
2023/03/20 00:55:16;;;;;;;3.17;2.97;;;;;;;11.82;82.68;95785.72;6127981;23;20210;-87
2023/03/20 00:57:47;;;;;;;3.00;2.80;;;;;;;11.83;83.05;95786.50;6128783;23;20179;-87
2023/03/20 01:00:30;;;;;;;3.33;3.03;;;;;;;11.82;83.00;95793.44;6128392;23;20239;-86
2023/03/20 01:02:57;;;;;;;3.57;3.00;;;;;;;11.72;82.84;95785.97;6127679;23;20183;-88
2023/03/20 01:05:26;;;;;;;3.43;3.07;;;;;;;11.67;83.29;95782.31;6129765;23;20205;-87
2023/03/20 01:07:54;;;;;;;3.40;3.10;;;;;;;11.64;83.08;95788.63;6129034;23;20180;-88
2023/03/20 01:10:22;;;;;;;3.40;3.10;;;;;;;11.65;83.15;95781.69;6128936;23;20175;-87
2023/03/20 01:12:49;;;;;;;3.40;3.10;;;;;;;11.70;82.95;95785.34;6129098;23;20214;-88
2023/03/20 01:15:21;;;;;;;3.87;2.90;;;;;;;11.75;82.67;95787.38;6128630;23;20203;-88
2023/03/20 01:17:47;;;;;;;3.40;3.17;;;;;;;11.81;82.21;95780.72;6128981;23;20771;-89
2023/03/20 01:20:16;;;;;;;3.53;3.23;;;;;;;11.80;82.42;95782.50;6128459;23;20176;-88
2023/03/20 01:22:42;;;;;;;4.10;3.30;;;;;;;11.85;82.65;95787.13;6128456;23;20183;-87
2023/03/20 01:25:11;;;;;;;3.30;3.00;;;;;;;11.81;82.29;95786.69;6129403;23;20266;-89
2023/03/20 01:27:38;;;;;;;3.30;3.00;;;;;;;11.82;81.80;95790.88;6128299;23;20180;-88
2023/03/20 01:30:16;;;;;;;3.77;3.00;;;;;;;11.77;82.54;95788.81;6128585;23;20207;-89
2023/03/20 01:32:45;;;;;;;3.00;2.80;;;;;;;11.75;82.23;95793.31;6128177;23;20179;-89
2023/03/20 01:35:12;;;;;;;2.90;2.60;;;;;;;11.83;81.98;95794.25;6128762;23;20195;-88
2023/03/20 01:37:39;;;;;;;3.60;2.73;;;;;;;11.78;81.89;95787.03;6127120;23;20186;-89
2023/03/20 01:40:19;;;;;;;3.20;2.70;;;;;;;11.81;81.93;95786.69;6128887;23;20193;-88
2023/03/20 01:42:46;;;;;;;3.03;2.73;;;;;;;11.82;81.94;95779.75;6128956;23;20170;-88
2023/03/20 01:45:17;;;;;;;3.00;2.80;;;;;;;11.82;81.25;95784.91;6128022;23;20187;-88
2023/03/20 01:47:43;;;;;;;3.50;3.20;;;;;;;11.83;81.40;95789.88;6127960;23;20161;-87
2023/03/20 01:50:38;;;;;;;2.90;2.70;;;;;;;11.77;81.68;95788.00;6128517;23;20175;-87
2023/03/20 01:53:12;;;;;;;2.80;2.60;;;;;;;11.76;81.59;95789.00;6093665;23;20286;-86
2023/03/20 01:55:43;;;;;;;2.80;2.60;;;;;;;11.81;80.94;95785.88;6127584;23;20199;-88
2023/03/20 01:58:15;;;;;;;2.70;2.50;;;;;;;11.83;80.80;95783.94;6127914;23;20164;-90
2023/03/20 02:00:43;;;;;;;2.30;2.10;;;;;;;11.82;80.87;95783.13;6128800;23;20167;-86
2023/03/20 02:03:10;;;;;;;2.60;2.37;;;;;;;11.78;81.08;95781.88;6128491;23;20176;-88
2023/03/20 02:05:38;;;;;;;2.87;2.67;;;;;;;11.78;81.02;95789.63;6127765;23;20208;-87
2023/03/20 02:08:23;;;;;;;2.63;2.43;;;;;;;11.80;80.86;95784.28;6128200;23;20238;-88
2023/03/20 02:10:52;;;;;;;2.80;2.40;;;;;;;11.80;80.54;95784.28;6126817;23;20758;-89
2023/03/20 02:13:22;;;;;;;2.70;2.50;;;;;;;11.78;80.61;95781.88;6128058;23;20534;-87
2023/03/20 02:15:55;;;;;;;2.70;2.50;;;;;;;11.81;80.58;95784.09;6129753;23;20737;-87
2023/03/20 02:18:22;;;;;;;2.60;2.40;;;;;;;11.82;81.05;95785.72;6130742;23;20164;-89
2023/03/20 02:21:07;;;;;;;3.07;2.20;;;;;;;11.82;80.77;95779.75;6129739;23;20242;-88
2023/03/20 02:23:58;;;;;;;4.33;2.80;;;;;;;11.86;80.43;95778.41;6130862;23;20163;-87
2023/03/20 02:26:43;;;;;;;2.40;2.20;;;;;;;11.90;79.81;95784.81;6129533;23;20202;-88
2023/03/20 02:29:58;;;;;;;2.10;2.00;;;;;;;11.88;80.52;95781.63;6130418;23;20166;-87
2023/03/20 02:32:59;;;;;;;2.27;2.07;;;;;;;11.89;80.19;95778.06;6129538;23;20266;-87
2023/03/20 02:36:14;;;;;;;2.33;1.97;;;;;;;11.83;79.35;95779.56;6107306;23;20207;-89
2023/03/20 02:38:58;;;;;;;1.67;1.57;;;;;;;11.84;79.49;95780.38;6038419;23;20182;-88
2023/03/20 02:41:30;;;;;;;2.07;1.90;;;;;;;11.84;79.67;95782.94;6038477;23;20166;-88
2023/03/20 02:44:05;;;;;;;2.00;1.73;;;;;;;11.83;79.75;95778.78;6101805;23;20207;-88
2023/03/20 02:46:43;;;;;;;2.37;1.73;;;;;;;11.79;79.32;95780.91;6130013;23;20538;-87
2023/03/20 02:49:21;;;;;;;1.97;1.70;;;;;;;11.82;79.16;95783.13;6129159;23;20171;-87
2023/03/20 02:51:52;;;;;;;1.70;1.60;;;;;;;11.85;79.35;95776.81;6129984;23;20160;-87
2023/03/20 02:54:27;;;;;;;1.67;1.57;;;;;;;11.86;79.14;95781.00;6129354;23;20431;-89
2023/03/20 02:57:01;;;;;;;3.37;1.63;;;;;;;11.74;79.45;95776.25;6129409;23;20195;-89
2023/03/20 02:59:32;;;;;;;1.60;1.50;;;;;;;11.77;79.06;95777.69;6129896;23;20163;-86
2023/03/20 03:02:05;;;;;;;2.13;1.60;;;;;;;11.74;79.37;95783.97;6129748;23;20326;-89
2023/03/20 03:04:36;;;;;;;1.53;1.43;;;;;;;11.75;79.16;95784.78;6130080;23;20174;-87
2023/03/20 03:07:05;;;;;;;1.70;1.60;;;;;;;11.71;79.79;95788.72;6129214;23;20257;-87
2023/03/20 03:09:38;;;;;;;1.63;1.53;;;;;;;11.67;79.41;95785.69;6130423;23;20207;-87
2023/03/20 03:12:10;;;;;;;1.73;1.50;;;;;;;11.70;78.92;95785.34;6130460;23;20531;-87
2023/03/20 03:14:40;;;;;;;1.93;1.57;;;;;;;11.72;79.27;95782.59;6129412;23;20632;-87
2023/03/20 03:17:08;;;;;;;1.87;1.40;;;;;;;11.74;78.96;95786.56;6129879;23;20238;-87
2023/03/20 03:19:39;;;;;;;1.80;1.50;;;;;;;11.77;79.18;95790.59;6129567;23;20254;-87
2023/03/20 03:22:07;;;;;;;1.87;1.60;;;;;;;11.76;78.74;95789.00;6128275;23;20271;-89
2023/03/20 03:24:37;;;;;;;1.37;1.27;;;;;;;11.79;78.64;95790.41;6129162;23;20187;-88
2023/03/20 03:27:09;;;;;;;1.60;1.50;;;;;;;11.81;78.70;95783.31;6125528;23;20246;-88
2023/03/20 03:29:39;;;;;;;1.37;1.27;;;;;;;11.82;78.82;95790.06;6126130;23;20164;-87
2023/03/20 03:32:20;;;;;;;1.70;1.60;;;;;;;11.76;79.08;95791.56;6126176;23;20214;-88
2023/03/20 03:34:46;;;;;;;1.50;1.40;;;;;;;11.75;78.90;95795.09;6126396;23;20160;-86
2023/03/20 03:37:21;;;;;;;2.27;1.50;;;;;;;11.68;79.39;95796.81;6125486;23;20855;-88
2023/03/20 03:39:53;;;;;;;1.57;1.47;;;;;;;11.72;79.45;95800.63;6126299;23;20488;-87
2023/03/20 03:42:28;;;;;;;1.90;1.80;;;;;;;11.75;79.80;95805.41;6126400;23;20160;-87
2023/03/20 03:45:02;;;;;;;1.50;1.40;;;;;;;11.75;79.62;95808.78;6127297;23;20655;-88
2023/03/20 03:47:35;;;;;;;1.43;1.33;;;;;;;11.73;79.50;95805.63;6126913;23;20195;-87
2023/03/20 03:50:06;;;;;;;1.80;1.70;;;;;;;11.72;80.09;95809.19;6126928;23;20243;-88
2023/03/20 03:52:34;;;;;;;1.80;1.70;;;;;;;11.62;80.92;95805.25;6127622;23;20188;-87
2023/03/20 03:55:08;;;;;;;1.80;1.70;;;;;;;11.60;80.90;95805.41;6128332;23;20710;-87
2023/03/20 03:57:39;;;;;;;1.67;1.47;;;;;;;11.59;81.77;95808.97;6128152;23;20163;-87
2023/03/20 04:00:10;;;;;;;2.27;2.00;;;;;;;11.60;82.18;95813.16;6127628;23;20174;-87
2023/03/20 04:02:37;;;;;;;1.80;1.70;;;;;;;11.61;82.26;95819.13;6126802;23;20239;-86
2023/03/20 04:05:07;;;;;;;1.70;1.60;;;;;;;11.67;81.90;95819.22;6126614;23;20183;-86
2023/03/20 04:07:33;;;;;;;1.83;1.73;;;;;;;11.65;82.13;95828.09;6126727;23;20182;-87
2023/03/20 04:10:00;;;;;;;2.10;1.90;;;;;;;11.64;82.14;95823.94;6129119;23;20193;-88
2023/03/20 04:12:36;;;;;;;1.80;1.70;;;;;;;11.61;82.85;95822.50;6126955;23;20563;-87
2023/03/20 04:15:04;;;;;;;1.90;1.80;;;;;;;11.63;82.13;95825.69;6127460;23;20610;-87
2023/03/20 04:17:31;;;;;;;1.83;1.73;;;;;;;11.64;82.02;95831.66;6127438;23;20231;-89
2023/03/20 04:19:57;;;;;;;1.93;1.83;;;;;;;11.64;81.67;95839.41;6126963;23;20187;-87
2023/03/20 04:22:24;;;;;;;1.63;1.53;;;;;;;11.58;81.46;95835.75;6126553;23;20181;-88
2023/03/20 04:24:51;;;;;;;1.90;1.70;;;;;;;11.54;81.16;95833.72;6126505;23;20187;-87
2023/03/20 04:27:18;;;;;;;3.73;1.47;;;;;;;11.51;80.70;95837.44;6126879;23;20179;-87
2023/03/20 04:29:45;;;;;;;1.40;1.30;;;;;;;11.53;81.06;95834.69;6128373;23;20492;-87
2023/03/20 04:32:12;;;;;;;1.87;1.33;;;;;;;11.54;80.78;95839.66;6127353;23;20493;-87
2023/03/20 04:34:38;;;;;;;1.60;1.50;;;;;;;11.54;80.88;95841.44;6126441;23;20223;-86
2023/03/20 04:37:07;;;;;;;1.50;1.40;;;;;;;11.53;80.79;95847.59;6125843;23;20227;-88
2023/03/20 04:39:36;;;;;;;1.40;1.30;;;;;;;11.53;80.77;95845.00;6126140;23;20186;-87
2023/03/20 04:42:03;;;;;;;2.50;1.30;;;;;;;11.55;80.51;95848.97;6126076;23;20180;-87
2023/03/20 04:44:29;;;;;;;1.47;1.37;;;;;;;11.53;79.94;95852.75;6127251;23;20176;-87
2023/03/20 04:46:57;;;;;;;1.73;1.60;;;;;;;11.44;79.20;95849.41;6126075;23;20203;-86
2023/03/20 04:49:24;;;;;;;1.70;1.60;;;;;;;11.41;79.40;95854.91;6126950;23;20179;-86
2023/03/20 04:51:50;;;;;;;2.00;1.80;;;;;;;11.41;79.24;95848.00;6127701;23;20176;-87
2023/03/20 04:54:17;;;;;;;1.80;1.70;;;;;;;11.39;78.90;95849.94;6127259;23;20199;-87
2023/03/20 04:56:43;;;;;;;1.77;1.67;;;;;;;11.36;78.62;95852.84;6126443;23;20225;-87
2023/03/20 04:59:10;;;;;;;2.20;1.90;;;;;;;11.31;78.42;95850.03;6125995;23;20226;-88
2023/03/20 05:01:36;;;;;;;2.00;1.90;;;;;;;11.31;78.19;95852.59;6127028;23;20207;-87
2023/03/20 05:04:04;;;;;;;1.90;1.80;;;;;;;11.33;78.56;95852.44;6129511;23;20175;-87
2023/03/20 05:06:31;;;;;;;2.07;1.87;;;;;;;11.29;78.29;95848.59;6128997;23;20223;-87
2023/03/20 05:08:59;;;;;;;2.13;2.00;;;;;;;11.29;78.54;95849.41;6128986;23;20180;-87
2023/03/20 05:11:26;;;;;;;2.43;2.13;;;;;;;11.24;78.99;95851.69;6127315;23;20239;-87
2023/03/20 05:13:52;;;;;;;2.20;2.00;;;;;;;11.26;78.47;95854.09;6125894;23;20210;-88
2023/03/20 05:16:18;;;;;;;2.27;2.10;;;;;;;11.25;79.02;95849.91;6125220;23;20504;-87
2023/03/20 05:18:45;;;;;;;2.60;2.40;;;;;;;11.26;78.92;95851.50;6125047;23;20179;-88
2023/03/20 05:21:13;;;;;;;3.30;2.33;;;;;;;11.26;78.79;95854.88;6125290;23;20183;-88
2023/03/20 05:23:39;;;;;;;2.80;2.50;;;;;;;11.32;78.44;95863.72;6124625;23;20179;-88
2023/03/20 05:26:06;;;;;;;2.53;2.33;;;;;;;11.32;77.91;95861.94;6123928;23;20238;-88
2023/03/20 05:28:33;;;;;;;3.03;2.70;;;;;;;11.27;78.30;95863.44;6124311;23;20247;-88
2023/03/20 05:30:59;;;;;;;2.87;2.67;;;;;;;11.17;78.57;95871.38;6124118;23;20268;-88
2023/03/20 05:33:25;;;;;;;2.97;2.77;;;;;;;11.15;79.68;95875.13;6124735;23;20199;-88
2023/03/20 05:35:52;;;;;;;3.10;2.90;;;;;;;11.17;79.77;95871.38;6123930;23;20199;-88
2023/03/20 05:38:21;;;;;;;2.70;2.50;;;;;;;11.18;79.26;95878.13;6124158;23;20180;-89
2023/03/20 05:40:48;;;;;;;3.07;2.87;;;;;;;11.17;79.29;95879.13;6124124;23;20172;-88
2023/03/20 05:43:16;;;;;;;3.87;3.17;;;;;;;11.16;78.56;95882.66;6125120;23;20171;-87
2023/03/20 05:45:43;;;;;;;3.30;3.00;;;;;;;11.16;78.95;95880.09;6124848;23;20200;-87
2023/03/20 05:48:09;;;;;;;3.63;3.33;;;;;;;11.11;79.22;95879.81;6129292;23;20194;-87
2023/03/20 05:50:36;;;;;;;3.90;3.60;;;;;;;10.97;79.51;95880.53;6129611;23;20301;-86
2023/03/20 05:53:03;;;;;;;3.50;3.20;;;;;;;10.94;79.39;95888.63;6127389;23;20259;-88
2023/03/20 05:55:31;;;;;;;4.00;3.60;;;;;;;10.90;79.66;95892.53;6131438;23;20261;-86
2023/03/20 05:57:58;;;;;;;4.00;3.70;;;;;;;10.92;79.83;95901.69;6125499;23;20234;-88
2023/03/20 06:00:25;;;;;;;3.93;3.63;;;;;;;10.98;79.66;95892.44;6125733;23;20184;-88
2023/03/20 06:02:51;;;;;;;4.23;3.93;;;;;;;10.99;79.70;95901.78;6126353;23;20183;-87
2023/03/20 06:05:17;;;;;;;4.07;3.77;;;;;;;10.95;80.36;95903.13;6125835;23;20265;-87
2023/03/20 06:07:46;;;;;;;4.53;4.13;;;;;;;10.86;80.54;95909.28;6126233;23;20667;-87
2023/03/20 06:10:13;;;;;;;4.63;4.23;;;;;;;10.77;81.25;95908.53;6126329;23;20187;-87
2023/03/20 06:12:43;;;;;;;4.50;4.10;;;;;;;10.85;80.52;95912.84;6125293;23;20635;-86
2023/03/20 06:15:13;;;;;;;4.13;3.83;;;;;;;10.85;81.73;95913.63;6127061;23;20654;-86
2023/03/20 06:17:39;;;;;;;4.50;4.10;;;;;;;10.83;80.12;95920.72;6126767;23;20246;-87
2023/03/20 06:20:09;;;;;;;4.80;4.40;;;;;;;10.80;80.81;95913.34;6127542;23;20193;-89
2023/03/20 06:22:39;;;;;;;5.07;4.67;;;;;;;10.83;80.78;95922.50;6125988;23;20187;-87
2023/03/20 06:25:13;;;;;;;5.13;4.73;;;;;;;10.86;80.92;95927.31;6124912;23;20180;-86
2023/03/20 06:27:41;;;;;;;5.00;4.60;;;;;;;10.74;80.98;95921.75;6126567;23;20227;-88
2023/03/20 06:30:09;;;;;;;5.07;4.67;;;;;;;10.83;80.70;95928.44;6126241;23;20310;-86
2023/03/20 06:32:35;;;;;;;4.60;4.20;;;;;;;10.90;80.78;95931.16;6126458;23;20202;-86
2023/03/20 06:35:02;;;;;;;4.93;4.43;;;;;;;10.94;80.21;95937.59;6125869;23;20203;-86
2023/03/20 06:37:30;;;;;;;4.50;3.97;;;;;;;10.99;80.55;95935.28;6125223;23;20221;-86
2023/03/20 06:39:56;;;;;;;5.13;4.67;;;;;;;11.03;80.17;95931.41;6125801;23;20191;-87
2023/03/20 06:42:23;;;;;;;5.30;4.80;;;;;;;11.04;80.40;95938.16;6125510;23;20179;-87
2023/03/20 06:44:50;;;;;;;5.10;4.70;;;;;;;11.06;79.70;95938.78;6124851;23;20172;-87
2023/03/20 06:47:17;;;;;;;4.70;4.30;;;;;;;11.08;79.64;95929.94;6126449;23;20195;-86
2023/03/20 06:49:43;;;;;;;5.17;4.77;;;;;;;11.06;79.75;95931.06;6126399;23;20176;-86
2023/03/20 06:52:15;;;;;;;4.77;4.37;;;;;;;11.12;79.46;95935.53;6123847;23;20214;-86
2023/03/20 06:54:41;;;;;;;5.43;4.63;;;;;;;11.17;78.96;95928.06;6125721;23;20234;-86
2023/03/20 06:57:19;;;;;;;4.90;4.50;;;;;;;11.29;78.61;95931.06;6122896;23;20199;-86
2023/03/20 06:59:46;;;;;;;4.90;4.50;;;;;;;11.36;78.15;95926.81;6123137;23;20195;-86
2023/03/20 07:02:15;;;;;;;4.73;4.33;;;;;;;11.39;78.37;95929.84;6126525;23;20258;-86
2023/03/20 07:04:41;;;;;;;5.17;4.77;;;;;;;11.39;78.08;95932.44;6127885;23;20179;-85
2023/03/20 07:07:08;;;;;;;5.10;4.70;;;;;;;11.42;77.75;95926.94;6127888;23;20202;-87
2023/03/20 07:09:35;;;;;;;5.50;4.93;;;;;;;11.42;77.14;95934.66;6132826;23;20191;-86
2023/03/20 07:12:03;;;;;;;5.37;4.87;;;;;;;11.48;77.17;95940.94;6133184;23;20229;-87
2023/03/20 07:14:30;;;;;;;5.43;4.63;;;;;;;11.49;76.86;95942.53;6132280;23;20196;-87
2023/03/20 07:16:56;;;;;;;5.00;4.60;;;;;;;11.46;76.92;95942.06;6130218;23;20211;-88
2023/03/20 07:19:24;;;;;;;5.60;5.10;;;;;;;11.43;77.03;95949.16;6131982;23;20194;-87
2023/03/20 07:21:56;;;;;;;4.90;4.40;;;;;;;11.47;77.13;95948.81;6128719;23;20187;-85
2023/03/20 07:24:22;;;;;;;5.50;5.00;;;;;;;11.42;77.53;95963.03;6131333;23;20234;-87
2023/03/20 07:26:50;;;;;;;5.97;4.93;;;;;;;11.39;77.09;95958.22;6131656;23;20196;-86
2023/03/20 07:29:17;;;;;;;5.37;4.93;;;;;;;11.47;76.94;95965.09;6129237;23;20718;-87
2023/03/20 07:31:48;;;;;;;5.90;5.17;;;;;;;11.65;76.38;95962.22;6129892;23;20179;-85
2023/03/20 07:34:14;;;;;;;5.37;4.87;;;;;;;11.95;75.50;95963.91;6132889;23;20183;-85
2023/03/20 07:36:45;;;;;;;5.07;4.57;;;;;;;12.02;74.52;95967.41;6131990;23;20199;-87
2023/03/20 07:39:13;;;;;;;5.30;4.40;;;;;;;12.38;74.09;95967.53;6130874;23;20164;-87
2023/03/20 07:41:40;;;;;;;5.10;4.60;;;;;;;12.49;73.52;95970.66;6131414;23;20180;-87
2023/03/20 07:44:09;;;;;;;5.10;4.70;;;;;;;12.37;72.23;95980.63;6132348;23;20199;-89
2023/03/20 07:46:35;;;;;;;4.70;4.30;;;;;;;12.24;73.45;95978.66;6131247;23;20206;-86
2023/03/20 07:49:02;;;;;;;5.90;4.67;;;;;;;12.10;73.03;95977.66;6129388;23;20210;-88
2023/03/20 07:51:30;;;;;;;4.50;4.10;;;;;;;12.00;73.48;95974.53;6133021;23;20654;-88
2023/03/20 07:53:58;;;;;;;5.37;4.87;;;;;;;11.97;73.67;95968.91;6131030;23;20203;-87
2023/03/20 07:56:30;;;;;;;4.47;4.13;;;;;;;12.11;73.95;95963.00;6131508;23;20196;-86
2023/03/20 07:58:57;;;;;;;4.50;4.10;;;;;;;12.18;72.67;95963.88;6131571;23;20168;-85
2023/03/20 08:01:23;;;;;;;4.50;4.10;;;;;;;12.17;72.55;95969.19;6129921;23;20187;-87
2023/03/20 08:03:50;;;;;;;4.63;3.97;;;;;;;12.30;72.71;95974.56;6130290;23;20171;-87
2023/03/20 08:06:16;;;;;;;4.60;4.20;;;;;;;12.30;72.23;95977.16;6129443;23;20223;-86
2023/03/20 08:08:45;;;;;;;4.60;4.20;;;;;;;12.30;72.31;95975.38;6129285;23;20183;-87
2023/03/20 08:11:16;;;;;;;4.43;4.03;;;;;;;12.34;71.94;95981.75;6129014;23;20235;-88
2023/03/20 08:13:42;;;;;;;4.20;3.90;;;;;;;12.38;71.29;95983.03;6130722;23;20167;-87
2023/03/20 08:16:12;;;;;;;5.23;3.97;;;;;;;12.48;71.44;95981.97;6131718;23;20207;-88
2023/03/20 08:18:38;;;;;;;4.37;4.07;;;;;;;12.47;71.06;95985.53;6131613;23;20250;-86
2023/03/20 08:21:08;;;;;;;4.50;4.10;;;;;;;12.31;71.68;95983.91;6129479;23;20611;-86
2023/03/20 08:23:35;;;;;;;4.70;4.20;;;;;;;12.17;71.28;95985.50;6126011;23;20528;-87
2023/03/20 08:26:02;;;;;;;4.20;3.80;;;;;;;12.07;71.58;95972.84;6129348;23;20207;-88
2023/03/20 08:28:29;;;;;;;4.10;3.70;;;;;;;11.98;72.32;95973.09;6127465;23;20231;-87
2023/03/20 08:30:56;;;;;;;4.07;3.77;;;;;;;12.00;72.52;95974.53;6124824;23;20179;-88
2023/03/20 08:33:22;;;;;;;5.33;4.10;;;;;;;12.08;71.97;95973.66;6127316;23;20183;-86
2023/03/20 08:35:55;;;;;;;4.40;4.00;;;;;;;12.03;72.69;95966.44;6127200;23;20200;-86
2023/03/20 08:38:22;;;;;;;4.27;3.90;;;;;;;12.06;72.44;95962.72;6128421;23;20160;-87
2023/03/20 08:40:49;;;;;;;4.17;3.87;;;;;;;12.13;72.26;95966.16;6128521;23;20179;-87
2023/03/20 08:43:16;;;;;;;3.47;3.17;;;;;;;11.97;71.79;95964.53;6130989;23;20179;-86
2023/03/20 08:45:44;;;;;;;3.60;3.30;;;;;;;11.94;71.54;95959.72;6128852;23;20200;-86
2023/03/20 08:48:11;;;;;;;2.90;2.70;;;;;;;11.96;71.83;95965.53;6126669;23;20182;-87
2023/03/20 08:50:41;;;;;;;3.40;3.17;;;;;;;12.13;72.09;95967.94;6128377;23;20187;-87
2023/03/20 08:53:07;;;;;;;4.00;3.43;;;;;;;12.24;71.11;95965.75;6128721;23;20184;-87
2023/03/20 08:55:34;;;;;;;3.50;3.20;;;;;;;12.27;70.68;95967.19;6127711;23;20237;-86
2023/03/20 08:58:00;;;;;;;3.77;3.20;;;;;;;12.19;70.90;95964.66;6127576;23;20186;-88
2023/03/20 09:00:27;;;;;;;3.93;3.50;;;;;;;12.27;71.05;95967.19;6128586;23;20186;-85
2023/03/20 09:02:55;;;;;;;4.07;3.70;;;;;;;12.33;71.75;95971.59;6126281;23;20172;-86
2023/03/20 09:05:22;;;;;;;3.30;3.00;;;;;;;12.42;70.85;95973.16;6128887;23;20195;-88
2023/03/20 09:07:48;;;;;;;3.50;3.20;;;;;;;12.49;70.49;95966.28;6130381;23;20300;-87
2023/03/20 09:10:15;;;;;;;6.07;5.50;;;;;;;13.12;69.90;95963.06;6129256;23;20179;-89
2023/03/20 09:12:41;;;;;;;5.10;3.23;;;;;;;13.35;67.91;95970.69;6127946;23;20180;-88
2023/03/20 09:15:11;;;;;;;3.30;3.00;;;;;;;13.41;66.12;95969.16;6128507;23;20203;-86
2023/03/20 09:17:40;;;;;;;2.83;2.63;;;;;;;13.93;65.55;95958.47;6129651;23;20207;-86
2023/03/20 09:20:11;;;;;;;3.00;2.70;;;;;;;14.45;64.64;95965.78;6129441;23;20185;-87
2023/03/20 09:22:39;;;;;;;2.53;2.33;;;;;;;14.42;62.81;95966.19;6129604;23;20168;-87
2023/03/20 09:27:54;;;;;;;2.00;1.90;;;;;;;14.17;63.58;95972.78;6129572;23;20171;-87
2023/03/20 09:30:21;;;;;;;2.88;2.60;;;;;;;14.00;65.15;95963.69;6130510;23;20171;-86
2023/03/20 09:32:47;;;;;;;2.28;2.17;;;;;;;13.79;62.94;95972.28;6129183;23;20230;-88
2023/03/20 09:35:15;;;;;;;4.27;2.70;;;;;;;13.69;65.05;95970.00;6130164;23;20195;-87
2023/03/20 09:37:46;;;;;;;4.80;2.33;;;;;;;13.63;65.21;95975.94;6128591;23;20223;-86
2023/03/20 09:40:24;;;;;;;1.95;1.85;;;;;;;13.59;63.54;95963.56;6129672;23;20175;-87
2023/03/20 09:42:57;;;;;;;2.40;2.20;;;;;;;13.55;64.32;95968.28;6129388;23;20170;-87
2023/03/20 09:45:39;;;;;;;15.00;13.50;;;;;;;13.52;63.25;95973.03;6128437;23;20246;-87
2023/03/20 09:48:15;;;;;;;3.58;3.28;;;;;;;13.34;63.73;95968.28;6127934;23;20160;-87
2023/03/20 09:50:55;;;;;;;2.55;2.30;;;;;;;13.36;64.43;95963.72;6127046;23;20187;-86
2023/03/20 09:53:30;;;;;;;2.27;2.07;;;;;;;13.33;63.99;95964.91;6127802;23;20170;-87
2023/03/20 09:55:57;;;;;;;2.10;2.00;;;;;;;13.35;64.23;95962.94;6127703;23;20203;-86
2023/03/20 09:58:26;;;;;;;2.90;2.30;;;;;;;13.35;64.82;95962.94;6128519;23;20202;-87
2023/03/20 10:00:56;;;;;;;2.80;2.60;;;;;;;13.15;65.46;95961.94;6127207;23;20207;-86
2023/03/20 10:03:28;;;;;;;3.80;2.50;;;;;;;13.15;65.08;95964.50;6124388;23;20163;-86
2023/03/20 10:06:00;;;;;;;2.33;2.13;;;;;;;13.18;65.23;95963.34;6123781;23;20559;-87
2023/03/20 10:08:29;;;;;;;1.93;1.83;;;;;;;13.20;64.93;95966.56;6124680;23;20168;-87
2023/03/20 10:11:07;;;;;;;2.47;1.73;;;;;;;13.21;64.21;95961.22;6124303;23;20184;-86
2023/03/20 10:13:59;;;;;;;2.67;1.70;;;;;;;13.46;64.63;95956.47;6123076;23;20163;-86
2023/03/20 10:16:35;;;;;;;2.87;1.67;;;;;;;14.30;61.74;95948.75;6122553;23;20200;-86
2023/03/20 10:19:07;;;;;;;2.10;1.60;;;;;;;14.42;60.94;95942.09;6123839;23;20589;-86
2023/03/20 10:21:42;;;;;;;6.03;5.43;;;;;;;14.24;59.60;95947.69;6122483;23;20164;-86
2023/03/20 10:24:18;;;;;;;1.98;1.77;;;;;;;14.07;58.59;95956.75;6125771;23;20198;-86
2023/03/20 10:26:48;;;;;;;1.85;1.55;;;;;;;13.96;59.42;95947.72;6127937;23;20199;-87
2023/03/20 10:29:24;;;;;;;1.00;1.00;;;;;;;13.98;59.41;95955.31;6126848;23;20234;-86
2023/03/20 10:31:55;;;;;;;1.20;1.13;;;;;;;13.82;58.83;95944.25;6122579;23;20612;-86
2023/03/20 10:34:32;;;;;;;1.33;1.23;;;;;;;13.76;59.07;95950.16;6125231;23;20164;-87
2023/03/20 10:37:12;;;;;;;1.35;1.25;;;;;;;13.77;59.37;95941.41;6123324;23;20210;-87
2023/03/20 10:39:51;;;;;;;1.27;1.17;;;;;;;13.82;59.04;95943.44;6126940;23;20638;-86
2023/03/20 10:42:23;;;;;;;1.17;1.10;;;;;;;13.85;58.80;95935.31;6125070;23;20833;-86
2023/03/20 10:44:55;;;;;;;1.40;1.30;;;;;;;13.99;59.11;95937.00;6126037;23;20863;-86
2023/03/20 10:47:26;;;;;;;1.20;1.10;;;;;;;14.07;58.23;95931.66;6124958;23;20238;-86
2023/03/20 10:49:55;;;;;;;1.77;1.02;;;;;;;14.23;58.47;95930.59;6126710;23;20160;-86
2023/03/20 10:52:27;;;;;;;1.48;1.02;;;;;;;14.32;56.49;95928.63;6127525;23;20187;-86
2023/03/20 10:54:58;;;;;;;0.95;0.93;;;;;;;14.33;55.85;95920.66;6124977;23;20183;-85
2023/03/20 10:57:27;;;;;;;1.20;1.10;;;;;;;14.38;56.24;95922.69;6124114;23;20202;-86
2023/03/20 10:59:57;;;;;;;2.40;2.20;;;;;;;14.77;56.13;95920.31;6123148;23;20183;-83
2023/03/20 11:02:28;;;;;;;2.17;1.98;;;;;;;15.01;55.08;95918.19;6123260;23;20179;-84
2023/03/20 11:05:00;;;;;;;1.33;1.23;;;;;;;15.35;54.70;95907.69;6124978;23;20187;-86
2023/03/20 11:07:33;;;;;;;1.35;1.25;;;;;;;15.84;54.12;95914.31;6123787;23;20198;-85
2023/03/20 11:10:15;;;;;;;1.15;1.05;;;;;;;16.02;52.27;95911.09;6121257;23;20164;-86
2023/03/20 11:12:44;;;;;;;1.42;1.30;;;;;;;15.76;52.23;95909.31;6122610;23;20175;-86
2023/03/20 11:15:25;;;;;;;1.52;1.20;;;;;;;15.45;52.18;95915.88;6125928;23;20203;-87
2023/03/20 11:17:54;;;;;;;1.40;1.10;;;;;;;15.17;53.29;95908.25;6126654;23;20199;-87
2023/03/20 11:20:20;;;;;;;1.52;1.25;;;;;;;15.04;54.13;95910.78;6123279;23;20650;-85
2023/03/20 11:22:49;;;;;;;1.25;1.13;;;;;;;14.95;54.26;95916.38;6123574;23;20189;-86
2023/03/20 11:25:28;;;;;;;1.45;1.05;;;;;;;14.87;54.13;95917.34;6123052;23;20183;-86
2023/03/20 11:27:55;;;;;;;1.35;1.23;;;;;;;14.78;54.50;95906.34;6122199;23;20160;-85
2023/03/20 11:30:22;;;;;;;1.33;1.15;;;;;;;14.78;54.79;95911.53;6122773;23;20183;-86
2023/03/20 11:32:50;;;;;;;1.85;1.10;;;;;;;14.66;54.58;95917.44;6125591;23;20184;-86
2023/03/20 11:35:23;;;;;;;2.25;1.20;;;;;;;14.64;54.74;95912.47;6125657;23;20199;-86
2023/03/20 11:37:53;;;;;;;1.20;1.10;;;;;;;14.63;54.45;95910.06;6124129;23;20271;-87
2023/03/20 11:40:23;;;;;;;1.88;1.23;;;;;;;14.68;54.87;95908.50;6125708;23;20179;-86
2023/03/20 11:42:54;;;;;;;1.20;1.10;;;;;;;14.89;55.07;95904.19;6126059;23;20187;-87
2023/03/20 11:45:20;;;;;;;1.92;1.30;;;;;;;14.92;54.55;95901.19;6125913;23;20651;-86
2023/03/20 11:47:51;;;;;;;1.20;1.10;;;;;;;14.91;54.27;95897.81;6124854;23;20179;-87
2023/03/20 11:50:27;;;;;;;1.30;1.20;;;;;;;14.70;54.34;95895.34;6129260;23;20163;-88